Time;durP1;ratioP1;P1;durP2;ratioP2;P2;SDS_P1;SDS_P2;PMS_P1;PMS_P2;Temp;Humidity;BMP_temperature;BMP_pressure;BME280_temperature;BME280_humidity;BME280_pressure;Samples;Min_cycle;Max_cycle;Signal;HPM_P1;HPM_P2
2023/09/18 00:01:20;;;;;;;6.07;5.15;;;;;;;21.29;68.15;100507.16;5057546;27;20054;-72
2023/09/18 00:03:49;;;;;;;5.82;4.72;;;;;;;21.28;68.41;100510.19;5081113;27;20095;-72
2023/09/18 00:06:17;;;;;;;8.10;4.93;;;;;;;21.28;68.34;100504.72;5078124;27;20366;-72
2023/09/18 00:08:45;;;;;;;9.02;4.78;;;;;;;21.26;68.12;100504.19;5063736;27;20408;-72
2023/09/18 00:11:13;;;;;;;6.07;4.80;;;;;;;21.25;68.34;100497.91;5055315;27;20041;-72
2023/09/18 00:13:40;;;;;;;5.70;4.35;;;;;;;21.24;68.29;100490.84;5083573;27;20115;-72
2023/09/18 00:16:08;;;;;;;5.88;4.80;;;;;;;21.24;68.25;100485.38;5072487;27;20052;-72
2023/09/18 00:18:36;;;;;;;5.75;4.70;;;;;;;21.22;68.27;100473.94;5086537;27;20101;-72
2023/09/18 00:21:06;;;;;;;5.10;4.20;;;;;;;21.23;68.59;100477.47;5103314;27;20068;-72
2023/09/18 00:23:35;;;;;;;5.57;4.78;;;;;;;21.22;68.37;100473.13;5125596;27;20038;-72
2023/09/18 00:26:03;;;;;;;6.35;4.60;;;;;;;21.20;68.52;100461.66;5086888;27;20514;-72
2023/09/18 00:28:31;;;;;;;6.90;4.43;;;;;;;21.19;68.27;100460.03;5104927;27;20051;-73
2023/09/18 00:30:59;;;;;;;9.57;4.38;;;;;;;21.19;68.32;100454.56;5110430;27;20073;-72
2023/09/18 00:33:26;;;;;;;6.35;4.32;;;;;;;21.18;68.51;100450.22;5078405;27;20054;-72
2023/09/18 00:35:54;;;;;;;5.15;4.13;;;;;;;21.17;68.23;100443.13;5116307;27;20070;-72
2023/09/18 00:38:24;;;;;;;8.25;4.53;;;;;;;21.16;68.48;100439.56;5119977;27;20053;-71
2023/09/18 00:40:51;;;;;;;8.25;4.47;;;;;;;21.16;68.18;100434.09;5112839;27;20095;-72
2023/09/18 00:43:20;;;;;;;5.68;4.15;;;;;;;21.13;68.20;100423.78;5105156;27;20057;-71
2023/09/18 00:45:49;;;;;;;5.68;3.85;;;;;;;21.14;68.17;100430.88;5084739;27;20209;-72
2023/09/18 00:48:17;;;;;;;6.10;4.13;;;;;;;21.12;68.27;100433.91;5069588;27;20094;-71
2023/09/18 00:50:46;;;;;;;5.95;4.28;;;;;;;21.08;68.11;100421.16;5067061;27;20045;-72
2023/09/18 00:53:18;;;;;;;5.68;4.13;;;;;;;21.12;68.28;100422.16;5061580;27;20076;-72
2023/09/18 00:55:48;;;;;;;5.78;4.10;;;;;;;21.11;68.26;100424.09;5080306;27;20126;-72
2023/09/18 00:58:16;;;;;;;4.95;4.03;;;;;;;21.10;68.02;100419.72;5081399;27;20050;-72
2023/09/18 01:00:45;;;;;;;6.28;4.30;;;;;;;21.09;68.17;100423.56;5063008;27;20053;-72
2023/09/18 01:03:13;;;;;;;5.00;3.85;;;;;;;21.09;67.85;100409.09;5080479;27;20103;-72
2023/09/18 01:05:41;;;;;;;8.68;4.53;;;;;;;21.08;67.87;100404.75;5069570;27;20105;-72
2023/09/18 01:08:09;;;;;;;5.13;4.35;;;;;;;21.07;67.83;100400.41;5089681;27;20095;-72
2023/09/18 01:10:48;;;;;;;6.20;3.47;;;;;;;21.06;67.82;100396.84;5081387;27;20105;-72
2023/09/18 01:13:22;;;;;;;6.65;3.33;;;;;;;21.07;67.51;100384.00;5081175;27;20119;-72
2023/09/18 01:15:58;;;;;;;4.50;3.90;;;;;;;21.06;67.45;100377.72;5082302;27;20041;-71
2023/09/18 01:18:26;;;;;;;5.60;3.58;;;;;;;21.07;67.32;100371.16;5074188;27;20408;-72
2023/09/18 01:20:54;;;;;;;6.43;4.10;;;;;;;21.07;67.56;100375.81;5088077;27;20402;-72
2023/09/18 01:23:23;;;;;;;4.47;3.63;;;;;;;21.07;67.41;100375.81;5090591;27;20478;-72
2023/09/18 01:25:51;;;;;;;5.85;3.95;;;;;;;21.06;67.38;100372.25;5088949;27;20070;-72
2023/09/18 01:28:19;;;;;;;5.55;3.85;;;;;;;21.06;67.53;100379.66;5095101;27;20041;-72
2023/09/18 01:30:47;;;;;;;6.68;3.47;;;;;;;21.04;67.46;100371.75;5081930;27;20060;-72
2023/09/18 01:33:16;;;;;;;7.28;3.67;;;;;;;21.05;67.39;100370.66;5097071;27;20046;-72
2023/09/18 01:35:46;;;;;;;9.55;4.60;;;;;;;21.06;67.46;100371.44;5077694;27;20076;-72
2023/09/18 01:38:14;;;;;;;4.82;3.83;;;;;;;21.06;67.57;100379.66;5069288;27;20048;-72
2023/09/18 01:40:44;;;;;;;5.63;4.15;;;;;;;21.05;67.63;100373.38;5120777;27;20103;-72
2023/09/18 01:43:12;;;;;;;4.50;3.40;;;;;;;21.05;67.46;100369.84;5123562;27;20142;-72
2023/09/18 01:45:40;;;;;;;3.97;3.47;;;;;;;21.03;67.24;100358.41;5116476;27;20054;-72
2023/09/18 01:48:08;;;;;;;6.63;3.97;;;;;;;21.04;67.41;100374.50;5086532;27;20056;-72
2023/09/18 01:50:40;;;;;;;6.05;4.00;;;;;;;21.03;67.20;100372.88;5060645;27;20077;-72
2023/09/18 01:53:08;;;;;;;4.45;3.78;;;;;;;21.03;67.23;100367.41;5063624;27;20052;-72
2023/09/18 01:55:36;;;;;;;4.38;3.17;;;;;;;21.03;67.13;100363.88;5107370;27;20057;-72
2023/09/18 01:58:05;;;;;;;4.97;3.80;;;;;;;21.02;67.24;100357.59;5077888;27;20041;-72
2023/09/18 02:00:34;;;;;;;5.68;3.85;;;;;;;21.01;67.43;100358.69;5082456;27;20113;-72
2023/09/18 02:03:03;;;;;;;5.55;3.45;;;;;;;21.00;67.40;100350.81;5089929;27;20056;-72
2023/09/18 02:05:41;;;;;;;8.13;4.03;;;;;;;21.00;67.49;100348.06;5067686;27;20045;-71
2023/09/18 02:08:09;;;;;;;6.05;4.30;;;;;;;20.99;67.36;100350.00;5061042;27;20052;-72
2023/09/18 02:10:37;;;;;;;4.28;3.40;;;;;;;20.98;67.33;100345.66;5094561;27;20049;-71
2023/09/18 02:13:06;;;;;;;6.43;3.70;;;;;;;20.98;67.63;100339.38;5075176;27;20049;-72
2023/09/18 02:15:35;;;;;;;5.22;3.58;;;;;;;20.97;67.44;100351.41;5068666;27;20118;-72
2023/09/18 02:18:03;;;;;;;5.47;3.60;;;;;;;20.95;67.43;100348.19;5071426;27;20076;-72
2023/09/18 02:20:31;;;;;;;4.10;3.20;;;;;;;20.95;67.37;100342.72;5069099;27;20045;-72
2023/09/18 02:22:59;;;;;;;6.45;3.80;;;;;;;20.95;67.59;100340.78;5063322;27;20076;-72
2023/09/18 02:25:27;;;;;;;5.72;3.78;;;;;;;20.94;67.62;100332.91;5071660;27;20098;-72
2023/09/18 02:27:55;;;;;;;8.25;3.67;;;;;;;20.94;67.74;100324.69;5066184;27;20045;-72
2023/09/18 02:30:24;;;;;;;5.68;3.92;;;;;;;20.93;67.89;100328.53;5092256;27;20071;-72
2023/09/18 02:32:52;;;;;;;7.28;4.55;;;;;;;20.92;67.72;100321.47;5106685;27;20049;-72
2023/09/18 02:35:20;;;;;;;6.68;3.55;;;;;;;20.91;67.81;100323.38;5076502;27;20063;-70
2023/09/18 02:37:48;;;;;;;8.30;3.85;;;;;;;20.91;67.95;100330.78;5078218;27;20060;-71
2023/09/18 02:40:16;;;;;;;5.68;3.63;;;;;;;20.90;68.12;100323.69;5062702;27;20057;-71
2023/09/18 02:42:44;;;;;;;11.75;3.97;;;;;;;20.90;68.03;100334.63;5068671;27;20423;-72
2023/09/18 02:45:12;;;;;;;4.68;3.25;;;;;;;20.89;68.09;100305.69;5065832;27;20041;-72
2023/09/18 02:47:42;;;;;;;6.80;3.70;;;;;;;20.87;67.92;100296.97;5060885;27;20053;-72
2023/09/18 02:50:11;;;;;;;5.13;3.90;;;;;;;20.84;68.20;100292.13;5061071;27;20046;-72
2023/09/18 02:52:39;;;;;;;9.63;3.97;;;;;;;20.86;68.18;100282.50;5059064;27;20053;-72
2023/09/18 02:55:09;;;;;;;5.97;3.65;;;;;;;20.86;68.12;100270.78;5066974;27;20184;-70
2023/09/18 02:57:37;;;;;;;7.60;4.07;;;;;;;20.84;68.10;100270.28;5058691;27;20057;-71
2023/09/18 03:00:06;;;;;;;10.05;3.83;;;;;;;20.84;68.22;100268.34;5056868;27;20118;-71
2023/09/18 03:02:35;;;;;;;8.43;3.95;;;;;;;20.84;68.43;100265.63;5072456;27;20053;-71
2023/09/18 03:05:06;;;;;;;7.82;3.97;;;;;;;20.83;68.12;100263.19;5075326;27;20055;-71
2023/09/18 03:07:34;;;;;;;5.57;3.63;;;;;;;20.83;68.21;100260.47;5055789;27;20425;-71
2023/09/18 03:10:02;;;;;;;5.28;3.63;;;;;;;20.83;68.29;100249.53;5063067;27;20049;-71
2023/09/18 03:12:29;;;;;;;4.68;3.30;;;;;;;20.82;68.20;100243.25;5061365;27;20044;-71
2023/09/18 03:14:57;;;;;;;7.18;3.70;;;;;;;20.82;68.19;100242.44;5058389;27;20060;-71
2023/09/18 03:17:25;;;;;;;7.68;3.60;;;;;;;20.81;68.22;100255.28;5058880;27;20084;-71
2023/09/18 03:19:53;;;;;;;9.18;3.83;;;;;;;20.81;68.04;100274.41;5074217;27;20045;-71
2023/09/18 03:22:22;;;;;;;4.90;3.20;;;;;;;20.82;67.91;100264.31;5068417;27;20044;-71
2023/09/18 03:24:50;;;;;;;6.05;3.75;;;;;;;20.82;67.76;100272.50;5065665;27;20052;-71
2023/09/18 03:27:18;;;;;;;6.65;3.53;;;;;;;20.81;67.60;100293.53;5061222;27;20054;-71
2023/09/18 03:29:46;;;;;;;5.45;3.45;;;;;;;20.82;67.79;100292.44;5059434;27;20481;-71
2023/09/18 03:32:13;;;;;;;5.55;3.25;;;;;;;20.81;67.61;100268.97;5064754;27;20056;-71
2023/09/18 03:34:41;;;;;;;6.13;4.25;;;;;;;20.82;67.74;100270.56;5059188;27;20065;-71
2023/09/18 03:37:10;;;;;;;4.85;3.58;;;;;;;20.81;67.79;100266.22;5058970;27;20101;-71
2023/09/18 03:39:39;;;;;;;6.20;3.72;;;;;;;20.79;67.73;100273.94;5069216;27;20129;-71
2023/09/18 03:42:07;;;;;;;8.95;3.72;;;;;;;20.80;67.66;100265.41;5088653;27;20147;-71
2023/09/18 03:44:35;;;;;;;8.15;3.30;;;;;;;20.80;67.78;100264.63;5080679;27;20046;-71
2023/09/18 03:47:03;;;;;;;7.63;4.30;;;;;;;20.80;67.55;100278.28;5064959;27;20100;-71
2023/09/18 03:49:31;;;;;;;7.85;3.40;;;;;;;20.80;67.53;100278.28;5059847;27;20061;-71
2023/09/18 03:51:59;;;;;;;4.80;3.40;;;;;;;20.80;67.58;100281.03;5077642;27;20048;-71
2023/09/18 03:54:26;;;;;;;7.38;3.58;;;;;;;20.79;67.66;100260.28;5069526;27;20064;-71
2023/09/18 03:56:56;;;;;;;10.68;3.50;;;;;;;20.76;67.54;100260.91;5059413;27;20043;-71
2023/09/18 03:59:23;;;;;;;6.85;3.78;;;;;;;20.79;67.63;100257.56;5056421;27;20052;-70
2023/09/18 04:01:51;;;;;;;6.50;3.80;;;;;;;20.75;67.74;100265.56;5068616;27;20045;-70
2023/09/18 04:04:19;;;;;;;7.05;4.25;;;;;;;20.77;67.74;100289.81;5107304;27;20060;-70
2023/09/18 04:06:47;;;;;;;7.85;3.88;;;;;;;20.77;67.85;100289.81;5059408;27;20130;-71
2023/09/18 04:09:15;;;;;;;7.10;3.72;;;;;;;20.76;67.93;100291.75;5077852;27;20132;-71
2023/09/18 04:11:43;;;;;;;7.30;3.60;;;;;;;20.75;67.96;100286.59;5076710;27;20044;-71
2023/09/18 04:14:12;;;;;;;7.50;3.95;;;;;;;20.75;68.11;100273.75;5062744;27;21131;-71
2023/09/18 04:16:42;;;;;;;6.90;3.97;;;;;;;20.73;68.09;100267.78;5064177;27;20044;-71
2023/09/18 04:19:10;;;;;;;7.38;3.65;;;;;;;20.70;68.39;100254.72;5104782;27;20440;-71
2023/09/18 04:21:38;;;;;;;9.18;4.15;;;;;;;20.73;68.32;100256.03;5076239;27;20053;-71
2023/09/18 04:24:07;;;;;;;6.70;3.90;;;;;;;20.72;68.32;100248.97;5081317;27;20056;-71
2023/09/18 04:26:35;;;;;;;9.30;3.42;;;;;;;20.71;68.27;100247.34;5065533;27;20037;-71
2023/09/18 04:29:03;;;;;;;7.03;3.92;;;;;;;20.70;68.33;100252.00;5067973;27;20084;-69
2023/09/18 04:31:32;;;;;;;6.30;3.38;;;;;;;20.71;68.35;100247.34;5060336;27;20475;-71
2023/09/18 04:34:00;;;;;;;6.82;4.07;;;;;;;20.69;68.61;100242.19;5061094;27;20048;-71
2023/09/18 04:36:28;;;;;;;8.88;3.88;;;;;;;20.68;68.42;100229.66;5091367;27;20371;-71
2023/09/18 04:38:56;;;;;;;9.10;3.47;;;;;;;20.69;68.67;100223.06;5062698;27;20070;-70
2023/09/18 04:41:24;;;;;;;9.88;3.90;;;;;;;20.67;68.39;100198.00;5107783;27;20056;-70
2023/09/18 04:43:52;;;;;;;6.55;3.83;;;;;;;20.67;68.61;100197.19;5073464;27;20135;-70
2023/09/18 04:46:19;;;;;;;6.95;3.50;;;;;;;20.67;68.47;100202.63;5073238;27;20041;-70
2023/09/18 04:48:48;;;;;;;11.50;3.80;;;;;;;20.67;68.58;100194.44;5063713;27;20060;-71
2023/09/18 04:51:16;;;;;;;7.28;3.63;;;;;;;20.67;68.56;100198.00;5057144;27;20045;-71
2023/09/18 04:53:44;;;;;;;7.25;3.80;;;;;;;20.66;68.49;100193.63;5058760;27;20055;-68
2023/09/18 04:56:12;;;;;;;6.47;3.30;;;;;;;20.66;68.55;100193.63;5066199;27;20109;-69
2023/09/18 04:58:40;;;;;;;8.23;3.67;;;;;;;20.67;68.58;100199.91;5064004;27;20065;-70
2023/09/18 05:01:08;;;;;;;6.32;3.30;;;;;;;20.66;68.60;100199.09;5064392;27;20060;-71
2023/09/18 05:03:36;;;;;;;6.07;3.70;;;;;;;20.66;68.46;100190.09;5089766;27;20120;-71
2023/09/18 05:06:09;;;;;;;4.95;3.28;;;;;;;20.65;68.54;100193.94;5084649;27;20417;-70
2023/09/18 05:08:37;;;;;;;5.18;2.83;;;;;;;20.64;68.65;100193.13;5088146;27;20077;-68
2023/09/18 05:11:05;;;;;;;5.43;3.08;;;;;;;20.64;68.53;100200.53;5068817;27;20049;-69
2023/09/18 05:13:33;;;;;;;4.80;3.05;;;;;;;20.63;68.58;100196.97;5095819;27;20408;-68
2023/09/18 05:16:01;;;;;;;4.93;2.67;;;;;;;20.64;68.54;100206.78;5083091;27;20048;-69
2023/09/18 05:18:28;;;;;;;7.60;3.17;;;;;;;20.64;68.56;100203.25;5091995;27;20057;-67
2023/09/18 05:20:58;;;;;;;4.95;2.78;;;;;;;20.63;68.54;100194.25;4368871;27;10000795;-67
2023/09/18 05:23:27;;;;;;;4.88;2.75;;;;;;;20.63;68.41;100193.44;5107129;27;20063;-68
2023/09/18 05:25:55;;;;;;;6.57;2.53;;;;;;;20.64;68.49;100195.88;5073000;27;20045;-70
2023/09/18 05:28:23;;;;;;;4.45;2.88;;;;;;;20.61;68.46;100204.66;5065845;27;20081;-70
2023/09/18 05:30:50;;;;;;;4.93;2.67;;;;;;;20.64;68.39;100195.88;5074000;27;20049;-66
2023/09/18 05:33:19;;;;;;;4.10;2.70;;;;;;;20.63;68.51;100196.97;5107762;27;20140;-69
2023/09/18 05:35:48;;;;;;;3.22;2.22;;;;;;;20.62;68.31;100203.56;5090808;27;20050;-67
2023/09/18 05:38:17;;;;;;;8.57;2.80;;;;;;;20.61;68.61;100201.94;5056753;27;20040;-67
2023/09/18 05:40:47;;;;;;;6.15;2.60;;;;;;;20.61;68.46;100195.66;5128582;27;20047;-67
2023/09/18 05:43:15;;;;;;;6.47;2.50;;;;;;;20.60;68.43;100200.31;5136973;27;20054;-67
2023/09/18 05:45:43;;;;;;;5.38;2.42;;;;;;;20.60;68.46;100211.25;5136286;27;20051;-68
2023/09/18 05:48:11;;;;;;;7.90;3.05;;;;;;;20.60;68.32;100219.44;5137619;27;20047;-68
2023/09/18 05:50:41;;;;;;;4.90;2.38;;;;;;;20.64;68.37;100217.72;5138255;27;20061;-67
2023/09/18 05:53:09;;;;;;;5.30;2.85;;;;;;;20.62;68.22;100213.66;5140832;28;20062;-68
2023/09/18 05:55:37;;;;;;;5.05;2.75;;;;;;;20.62;68.47;100224.59;5132896;27;20047;-67
2023/09/18 05:58:07;;;;;;;4.70;2.08;;;;;;;20.61;68.47;100217.50;5129260;27;20046;-67
2023/09/18 06:00:36;;;;;;;4.60;2.40;;;;;;;20.70;68.13;100221.16;5136126;27;20066;-67
2023/09/18 06:03:05;;;;;;;5.50;2.67;;;;;;;20.68;68.14;100235.09;5134921;27;20043;-67
2023/09/18 06:05:34;;;;;;;4.07;2.45;;;;;;;20.63;68.20;100232.47;5135966;27;20078;-68
2023/09/18 06:08:02;;;;;;;5.57;2.53;;;;;;;20.66;68.17;100245.53;5133371;27;20108;-67
2023/09/18 06:10:30;;;;;;;4.05;2.42;;;;;;;20.67;68.08;100241.69;5137369;27;20051;-69
2023/09/18 06:13:03;;;;;;;7.07;2.50;;;;;;;20.62;68.76;100235.50;5139167;27;20039;-68
2023/09/18 06:15:33;;;;;;;4.28;1.90;;;;;;;20.60;68.74;100232.28;5133986;27;20058;-69
2023/09/18 06:18:01;;;;;;;6.25;2.10;;;;;;;20.57;68.84;100239.16;5146557;27;20050;-68
2023/09/18 06:20:29;;;;;;;4.63;2.10;;;;;;;20.56;68.70;100239.44;5139629;27;20074;-68
2023/09/18 06:22:57;;;;;;;4.38;2.10;;;;;;;20.57;68.88;100246.53;5146792;27;20043;-66
2023/09/18 06:25:25;;;;;;;5.05;1.95;;;;;;;20.55;68.69;100257.75;5146189;27;20047;-67
2023/09/18 06:27:53;;;;;;;5.47;2.17;;;;;;;20.53;68.85;100254.53;5145675;27;20053;-67
2023/09/18 06:30:21;;;;;;;4.30;1.80;;;;;;;20.55;68.79;100256.94;5143945;27;20043;-67
2023/09/18 06:32:52;;;;;;;6.57;2.40;;;;;;;20.54;68.65;100263.53;5141657;27;20050;-67
2023/09/18 06:35:21;;;;;;;4.38;2.00;;;;;;;20.53;68.74;100264.63;5138561;27;20074;-67
2023/09/18 06:37:49;;;;;;;6.00;1.95;;;;;;;20.58;68.89;100270.00;5144931;27;20050;-67
2023/09/18 06:40:17;;;;;;;4.45;2.00;;;;;;;20.54;68.48;100260.78;5106323;27;20082;-67
2023/09/18 06:42:45;;;;;;;5.97;2.30;;;;;;;20.61;68.54;100264.72;5136867;27;20042;-67
2023/09/18 06:45:13;;;;;;;3.63;2.38;;;;;;;20.56;68.68;100275.75;5131922;27;20043;-66
2023/09/18 06:47:41;;;;;;;5.93;1.97;;;;;;;20.71;68.48;100271.91;4764995;27;10000439;-67
2023/09/18 06:50:12;;;;;;;4.30;1.50;;;;;;;20.66;68.57;100282.94;5075692;27;20343;-67
2023/09/18 06:52:40;;;;;;;2.75;1.50;;;;;;;20.56;68.68;100286.69;5078915;27;20474;-68
2023/09/18 06:55:09;;;;;;;4.35;2.55;;;;;;;20.53;68.68;100281.81;5063632;27;20057;-69
2023/09/18 06:57:37;;;;;;;6.40;1.60;;;;;;;20.52;69.11;100288.38;5060594;27;20133;-65
2023/09/18 07:00:06;;;;;;;3.90;1.92;;;;;;;20.51;68.67;100288.69;5053021;27;20060;-66
2023/09/18 07:02:33;;;;;;;7.90;1.90;;;;;;;20.53;68.65;100300.13;5059797;27;20117;-66
2023/09/18 07:05:02;;;;;;;4.75;1.60;;;;;;;20.51;68.66;100289.50;5067844;27;20074;-66
2023/09/18 07:07:32;;;;;;;6.00;1.88;;;;;;;20.50;68.76;100295.25;5056052;27;20060;-65
2023/09/18 07:09:59;;;;;;;4.18;1.48;;;;;;;20.49;68.72;100293.63;5074765;27;20063;-65
2023/09/18 07:12:31;;;;;;;1.55;1.23;;;;;;;20.48;68.75;100298.28;5082647;27;20073;-64
2023/09/18 07:15:04;;;;;;;5.32;1.50;;;;;;;20.47;68.71;100296.66;5062175;27;20059;-66
2023/09/18 07:17:33;;;;;;;5.28;1.67;;;;;;;20.47;68.76;100313.06;5058704;27;20049;-67
2023/09/18 07:20:09;;;;;;;3.53;1.70;;;;;;;20.46;68.79;100306.78;5082200;27;20227;-68
2023/09/18 07:22:39;;;;;;;4.07;1.98;;;;;;;20.64;68.32;100312.47;5057115;27;20060;-68
2023/09/18 07:25:07;;;;;;;3.15;1.63;;;;;;;20.55;68.48;100306.09;5076179;27;20053;-68
2023/09/18 07:27:38;;;;;;;2.33;1.40;;;;;;;20.51;68.58;100322.25;5092197;27;20049;-68
2023/09/18 07:30:07;;;;;;;4.78;1.90;;;;;;;20.48;68.42;100325.59;5093301;27;20474;-68
2023/09/18 07:32:35;;;;;;;5.10;1.70;;;;;;;20.50;68.74;100325.28;5114756;27;20046;-68
2023/09/18 07:35:07;;;;;;;2.95;1.45;;;;;;;20.61;68.33;100321.25;5070235;27;20132;-68
2023/09/18 07:37:36;;;;;;;2.05;1.48;;;;;;;20.51;68.52;100318.72;5063427;27;20060;-68
2023/09/18 07:40:08;;;;;;;4.40;1.65;;;;;;;20.50;68.44;100323.38;5078856;27;20071;-68
2023/09/18 07:42:36;;;;;;;2.08;1.45;;;;;;;20.48;68.59;100322.88;5055686;27;20127;-68
2023/09/18 07:45:04;;;;;;;6.03;1.60;;;;;;;20.51;68.61;100326.91;5062786;27;20607;-68
2023/09/18 07:47:32;;;;;;;3.40;1.75;;;;;;;20.59;68.53;100328.94;5056096;27;20230;-68
2023/09/18 07:50:00;;;;;;;2.00;1.50;;;;;;;20.54;68.40;100326.31;5059005;27;20049;-68
2023/09/18 07:52:29;;;;;;;3.85;1.48;;;;;;;20.52;68.37;100334.00;5056002;27;20049;-67
2023/09/18 07:54:57;;;;;;;6.05;1.60;;;;;;;20.52;68.39;100325.81;5063259;27;20055;-66
2023/09/18 07:57:28;;;;;;;3.38;1.30;;;;;;;20.51;68.33;100316.81;5067924;27;20140;-68
2023/09/18 07:59:56;;;;;;;9.07;1.58;;;;;;;20.50;68.52;100320.63;5069262;27;20574;-67
2023/09/18 08:02:25;;;;;;;4.00;1.60;;;;;;;20.62;68.30;100317.41;5075967;27;20054;-68
2023/09/18 08:04:53;;;;;;;5.20;2.20;;;;;;;20.40;68.53;100293.53;5080880;27;20053;-68
2023/09/18 08:07:21;;;;;;;3.80;1.52;;;;;;;20.67;68.44;100323.59;5055647;27;20056;-68
2023/09/18 08:09:49;;;;;;;4.63;1.60;;;;;;;20.61;68.19;100316.63;5055962;27;20354;-68
2023/09/18 08:12:17;;;;;;;2.33;1.35;;;;;;;20.57;68.22;100325.72;5054288;27;20053;-67
2023/09/18 08:14:46;;;;;;;3.33;1.42;;;;;;;20.54;68.33;100324.38;5053605;27;20068;-68
2023/09/18 08:17:14;;;;;;;2.85;1.40;;;;;;;20.53;68.40;100333.69;5054161;27;20076;-69
2023/09/18 08:19:44;;;;;;;1.65;1.20;;;;;;;20.56;68.32;100332.28;5066587;27;20105;-68
2023/09/18 08:22:15;;;;;;;2.17;1.52;;;;;;;20.55;68.19;100336.13;5061427;27;20053;-68
2023/09/18 08:24:45;;;;;;;4.43;1.48;;;;;;;20.59;68.42;100343.41;5075536;27;20068;-67
2023/09/18 08:27:16;;;;;;;5.32;1.77;;;;;;;20.68;68.18;100349.00;5064832;27;20187;-68
2023/09/18 08:29:46;;;;;;;5.57;1.20;;;;;;;20.57;68.04;100342.09;5081822;27;20051;-67
2023/09/18 08:32:14;;;;;;;3.00;1.50;;;;;;;20.86;67.97;100350.00;5056386;27;20116;-68
2023/09/18 08:34:42;;;;;;;3.58;1.38;;;;;;;20.69;67.62;100359.59;5097611;27;20554;-68
2023/09/18 08:37:10;;;;;;;2.67;1.42;;;;;;;20.79;68.15;100361.34;5061690;27;20052;-67
2023/09/18 08:39:38;;;;;;;2.55;1.33;;;;;;;20.75;67.59;100373.97;5090803;27;20055;-69
2023/09/18 08:42:08;;;;;;;2.90;1.45;;;;;;;20.97;68.09;100368.63;5066199;27;20059;-69
2023/09/18 08:44:40;;;;;;;2.60;1.40;;;;;;;21.08;67.10;100371.97;5058432;27;20052;-70
2023/09/18 08:47:11;;;;;;;5.60;1.63;;;;;;;20.83;67.58;100369.72;5049895;27;20052;-70
2023/09/18 08:49:40;;;;;;;6.05;2.33;;;;;;;20.89;67.48;100365.78;5054260;27;20045;-69
2023/09/18 08:52:09;;;;;;;2.75;1.52;;;;;;;20.96;67.37;100358.81;5051613;27;20056;-70
2023/09/18 08:54:37;;;;;;;2.08;1.40;;;;;;;21.04;67.62;100360.00;5056702;27;20542;-70
2023/09/18 08:57:07;;;;;;;5.75;2.20;;;;;;;21.04;67.05;100354.56;5053532;27;20040;-70
2023/09/18 08:59:36;;;;;;;10.07;2.22;;;;;;;20.88;67.84;100362.22;5050372;28;20071;-70
2023/09/18 09:02:04;;;;;;;3.40;1.50;;;;;;;21.28;66.44;100357.91;5055217;27;20053;-70
2023/09/18 09:04:33;;;;;;;6.82;1.90;;;;;;;21.04;67.23;100352.63;5051094;27;20510;-70
2023/09/18 09:07:01;;;;;;;3.10;1.60;;;;;;;21.27;66.63;100358.22;5057309;27;20053;-70
2023/09/18 09:09:30;;;;;;;2.97;1.83;;;;;;;21.26;66.67;100362.06;5058209;27;20105;-70
2023/09/18 09:11:58;;;;;;;3.70;1.80;;;;;;;21.47;66.45;100354.25;5083759;27;20057;-70
2023/09/18 09:14:28;;;;;;;3.05;1.50;;;;;;;21.24;66.81;100367.03;5062209;27;20045;-70
2023/09/18 09:16:57;;;;;;;6.80;1.70;;;;;;;21.15;67.24;100369.63;5066421;27;20095;-63
2023/09/18 09:19:30;;;;;;;3.17;1.88;;;;;;;21.11;67.38;100380.34;5057588;27;20523;-70
2023/09/18 09:22:01;;;;;;;3.88;1.70;;;;;;;21.20;67.48;100374.19;5075825;27;20554;-69
2023/09/18 09:24:41;;;;;;;4.85;2.03;;;;;;;21.23;66.91;100374.41;5079378;27;20125;-68
2023/09/18 09:27:10;;;;;;;2.55;1.40;;;;;;;21.21;67.26;100364.88;5058058;27;20056;-71
2023/09/18 09:29:38;;;;;;;3.42;1.80;;;;;;;21.21;66.98;100382.09;5062007;27;20508;-69
2023/09/18 09:32:16;;;;;;;3.70;1.75;;;;;;;21.17;67.52;100378.34;5062733;27;20053;-69
2023/09/18 09:34:46;;;;;;;3.55;1.88;;;;;;;21.39;66.93;100380.38;5059232;27;20091;-70
2023/09/18 09:37:15;;;;;;;3.63;1.70;;;;;;;21.28;67.24;100385.25;5064536;27;20049;-70
2023/09/18 09:39:50;;;;;;;5.03;1.75;;;;;;;21.47;67.04;100389.78;5072790;27;20064;-70
2023/09/18 09:42:24;;;;;;;5.07;1.70;;;;;;;21.36;66.96;100387.28;5066934;27;20041;-69
2023/09/18 09:45:03;;;;;;;5.95;1.80;;;;;;;21.41;67.13;100378.16;5065889;27;20049;-69
2023/09/18 09:47:34;;;;;;;7.80;1.90;;;;;;;21.46;66.87;100366.31;5084305;27;20124;-69
2023/09/18 09:50:09;;;;;;;3.92;1.83;;;;;;;21.38;67.46;100370.56;5097268;27;20175;-69
2023/09/18 09:52:43;;;;;;;5.75;1.95;;;;;;;21.16;67.61;100352.13;5067096;27;20056;-68
2023/09/18 09:55:23;;;;;;;6.88;2.10;;;;;;;21.35;67.21;100371.19;5062285;27;20132;-69
2023/09/18 09:57:53;;;;;;;3.40;1.92;;;;;;;21.28;67.23;100377.06;5060800;27;20139;-69
2023/09/18 10:00:30;;;;;;;5.65;1.85;;;;;;;21.44;67.16;100381.09;5060626;27;20094;-69
2023/09/18 10:02:59;;;;;;;4.03;2.00;;;;;;;21.59;66.71;100384.63;5058278;28;20069;-69
2023/09/18 10:05:33;;;;;;;7.28;1.98;;;;;;;21.79;66.15;100397.84;5057567;27;20733;-69
2023/09/18 10:08:07;;;;;;;3.13;1.50;;;;;;;21.59;66.59;100398.28;5068164;27;20053;-70
2023/09/18 10:10:38;;;;;;;3.65;1.48;;;;;;;21.68;66.32;100410.94;5094097;27;20060;-69
2023/09/18 10:13:11;;;;;;;6.63;2.10;;;;;;;21.64;66.27;100403.66;5086575;27;20113;-70
2023/09/18 10:15:43;;;;;;;5.30;2.05;;;;;;;21.71;66.24;100406.78;5101058;27;20042;-70
2023/09/18 10:18:38;;;;;;;6.13;1.80;;;;;;;21.74;65.95;100411.63;5100386;27;20051;-69
2023/09/18 10:21:15;;;;;;;2.40;1.45;;;;;;;21.72;66.13;100411.13;5093273;27;20051;-70
2023/09/18 10:23:58;;;;;;;2.38;1.55;;;;;;;21.58;66.58;100400.22;5086776;27;20687;-69
2023/09/18 10:26:28;;;;;;;5.45;2.15;;;;;;;21.46;67.30;100399.09;5071413;27;20461;-70
2023/09/18 10:28:59;;;;;;;3.40;1.50;;;;;;;21.57;66.60;100397.78;5112061;27;20075;-70
2023/09/18 10:31:29;;;;;;;2.72;1.73;;;;;;;21.51;66.94;100399.81;5072509;27;20090;-70
2023/09/18 10:33:58;;;;;;;3.67;1.65;;;;;;;21.54;67.06;100410.16;5058422;28;20049;-70
2023/09/18 10:36:27;;;;;;;2.97;1.77;;;;;;;21.72;66.31;100408.41;5067566;27;20064;-70
2023/09/18 10:38:59;;;;;;;4.05;1.70;;;;;;;21.66;66.49;100401.41;5058718;28;20056;-70
2023/09/18 10:41:27;;;;;;;4.28;1.77;;;;;;;21.55;67.09;100391.81;5062582;27;20056;-70
2023/09/18 10:43:57;;;;;;;2.55;1.70;;;;;;;21.55;66.73;100408.22;5061787;27;20053;-72
2023/09/18 10:46:26;;;;;;;7.60;1.77;;;;;;;21.55;66.79;100405.47;5058378;27;20061;-70
2023/09/18 10:48:55;;;;;;;5.80;1.75;;;;;;;21.45;67.39;100403.78;5060981;28;20053;-70
2023/09/18 10:51:24;;;;;;;4.07;1.92;;;;;;;21.42;67.37;100405.19;5058686;27;20091;-71
2023/09/18 10:53:53;;;;;;;4.60;2.63;;;;;;;21.81;66.49;100395.59;5060027;27;20053;-70
2023/09/18 10:56:22;;;;;;;5.15;1.80;;;;;;;21.63;66.46;100391.91;5051787;27;20452;-72
2023/09/18 10:58:58;;;;;;;8.55;2.20;;;;;;;21.59;66.64;100387.34;5066055;27;20049;-70
2023/09/18 11:01:27;;;;;;;5.25;2.00;;;;;;;21.46;67.21;100391.72;5056985;27;20062;-70
2023/09/18 11:04:01;;;;;;;3.03;1.88;;;;;;;21.50;67.42;100390.00;5093694;27;20046;-70
2023/09/18 11:06:29;;;;;;;3.55;2.35;;;;;;;21.50;67.46;100389.19;5092234;27;20189;-70
2023/09/18 11:09:04;;;;;;;3.42;1.90;;;;;;;21.62;66.66;100382.06;5059060;27;20495;-70
2023/09/18 11:11:35;;;;;;;2.90;1.80;;;;;;;21.86;65.50;100387.28;5079196;27;20071;-70
2023/09/18 11:14:04;;;;;;;6.03;1.92;;;;;;;21.77;65.88;100397.34;5080547;27;20665;-70
2023/09/18 11:16:38;;;;;;;5.03;2.08;;;;;;;21.67;66.09;100389.38;5063995;27;20132;-70
2023/09/18 11:19:11;;;;;;;6.25;2.28;;;;;;;21.63;66.10;100391.91;5087617;27;20078;-71
2023/09/18 11:21:39;;;;;;;3.70;1.73;;;;;;;21.49;66.65;100384.84;5081792;27;20110;-69
2023/09/18 11:24:11;;;;;;;3.47;2.00;;;;;;;21.59;66.29;100390.91;5083013;27;20136;-70
2023/09/18 11:26:41;;;;;;;3.95;2.33;;;;;;;21.75;65.64;100403.13;5066164;27;20102;-70
2023/09/18 11:29:12;;;;;;;3.65;1.75;;;;;;;21.85;65.62;100404.81;5054914;27;20059;-71
2023/09/18 11:31:47;;;;;;;5.35;1.90;;;;;;;21.79;65.67;100405.25;5067824;27;20469;-70
2023/09/18 11:34:16;;;;;;;4.63;1.90;;;;;;;21.85;65.34;100409.47;5062004;27;20052;-71